Trinidad, CA

5:49 PM PDT on October 24, 2014 (GMT -0700)
Baker Ranch Rd | Change Station
CLOSE
Current Station
Personal Weather Station
Location: Trinidad, CA
Elevation: 290 ft
Nearby Weather Stations
Active Advisory: Wind Advisory

Elev 290 ft 41.05 °N, 124.13 °W | Updated 8 minutes ago

Partly Cloudy
Partly Cloudy
64.2 °F
Feels Like 64.2 °F
N
4.0
Wind Variable Wind from SSW
Gusts 11.0 mph

Today
High -- | Low -- °F
--% Chance of Precip.
Yesterday
High -- | Low -- °F
Precip. -- in
7:38 AM 6:22 PM
New Moon, 1% visible
Pressure 29.72 in
Visibility 10.0 miles
Clouds Clear
Dew Point 59 °F
Humidity 83%
Rainfall 0.23 in
Snow Depth Not available.
UV 1 out of 12
Pollen 1.40 out of 12
Air Quality Not available.
Flu Activity Sporadic
METAR KACV 242353Z AUTO 19012G20KT 10SM CLR 21/12 A2971 RMK AO2 SLP064 T02060122 10228 20183 56025

More Conditions Fewer Conditions

Pressure 29.72 in
Visibility 10.0 miles
Clouds Clear
Dew Point 59 °F
Humidity 83%
Rainfall 0.23 in
Snow Depth Not available.
UV 1 out of 12
Pollen 1.40 out of 12
Air Quality Not available.
Flu Activity Sporadic
METAR KACV 242353Z AUTO 19012G20KT 10SM CLR 21/12 A2971 RMK AO2 SLP064 T02060122 10228 20183 56025

More Conditions Fewer Conditions

10-Day Weather Forecast

Almanac

Astronomy

Oct. 24, 2014 Rise Set
Actual Time 7:38 AM PDT 6:22 PM PDT
Civil Twilight 7:10 AM PDT 6:50 PM PDT
Nautical Twilight 6:37 AM PDT 7:22 PM PDT
Astronomical Twilight 6:05 AM PDT 7:54 PM PDT
Moon 8:23 AM PDT (10/24) 7:05 PM PDT (10/24)
Length of Visible Light 11h 40m
Length of Day
10h 44m
Tomorrow will be 2m 32s shorter.
New Moon, 1% of the Moon is Illuminated
Today
New Moon
Oct 30
First Quarter
Nov 6
Full
Nov 14
Last Quarter
Nov 22
New

Today's Extremes

State Highs State Lows

Community

WunderPhotos

Upload Photos

1,764,735 photos uploaded!

WunderBlogs® & News

Nearby

Snow Depth

Station Depth Elevation
Adin Mountain 0 in 6200 ft
Ward Creek #3 12 in 6750 ft
Echo Peak 0 in 7800 ft
Summit Meadow 0 in 9122 ft
Leavitt Meadows 0 in 7200 ft

Earthquake Activity

City Distance Mag. Time & Date
No recent earthquake activity has been reported nearby.
Minimum magnitude displayed is 2.5.

Coastal Water Temperatures

Place Temperature
Crescent City, CA 60.1 °F
North Spit, CA 57.9 °F
Port Orford, OR 60.1 °F

Nearby Weather Stations